createdAt,value
2023-01-21T00:01:55.403Z,31.35
2023-01-21T00:04:29.011Z,31.80
2023-01-21T00:07:01.431Z,31.42
2023-01-21T00:09:34.168Z,33.85
2023-01-21T00:12:06.299Z,32.30
2023-01-21T00:14:38.322Z,32.47
2023-01-21T00:17:10.328Z,33.40
2023-01-21T00:19:42.497Z,34.17
2023-01-21T00:22:18.897Z,32.75
2023-01-21T00:24:50.935Z,32.10
2023-01-21T00:27:23.340Z,32.83
2023-01-21T00:29:55.301Z,30.70
2023-01-21T00:32:27.431Z,31.92
2023-01-21T00:34:59.492Z,31.55
2023-01-21T00:37:31.534Z,33.92
2023-01-21T00:40:05.773Z,34.10
2023-01-21T00:42:37.810Z,34.15
2023-01-21T00:45:10.375Z,31.63
2023-01-21T00:47:42.624Z,32.90
2023-01-21T00:50:14.916Z,34.90
2023-01-21T00:52:47.016Z,34.30
2023-01-21T00:55:19.027Z,33.13
2023-01-21T00:57:53.215Z,29.83
2023-01-21T01:00:25.369Z,30.02
2023-01-21T01:03:59.778Z,30.90
2023-01-21T01:06:32.454Z,31.10
2023-01-21T01:09:30.145Z,30.60
2023-01-21T01:12:06.553Z,32.42
2023-01-21T01:17:24.314Z,30.08
2023-01-21T01:19:56.321Z,29.58
2023-01-21T01:22:28.617Z,29.15
2023-01-21T01:25:00.571Z,28.45
2023-01-21T01:27:32.803Z,29.08
2023-01-21T01:30:05.775Z,27.50
2023-01-21T01:32:37.813Z,27.77
2023-01-21T01:35:13.014Z,26.33
2023-01-21T01:37:44.955Z,27.05
2023-01-21T01:40:17.399Z,26.77
2023-01-21T01:42:49.645Z,25.65
2023-01-21T01:45:35.265Z,26.92
2023-01-21T01:48:08.349Z,26.42
2023-01-21T01:50:40.556Z,24.58
2023-01-21T01:53:15.887Z,25.73
2023-01-21T01:55:49.737Z,26.85
2023-01-21T01:58:23.191Z,24.77
2023-01-21T02:00:55.169Z,24.55
2023-01-21T02:03:46.140Z,26.27
2023-01-21T02:06:19.390Z,26.08
2023-01-21T02:08:52.324Z,25.17
2023-01-21T02:11:24.412Z,24.58
2023-01-21T02:13:59.539Z,24.90
2023-01-21T02:16:50.375Z,24.85
2023-01-21T02:20:22.525Z,24.70
2023-01-21T02:23:15.339Z,24.73
2023-01-21T02:26:28.246Z,25.02
2023-01-21T02:29:26.882Z,23.60
2023-01-21T02:32:40.701Z,25.90
2023-01-21T02:35:27.463Z,26.23
2023-01-21T02:38:26.313Z,25.63
2023-01-21T02:41:44.221Z,25.67
2023-01-21T02:45:00.880Z,25.30
2023-01-21T02:48:06.499Z,24.83
2023-01-21T02:50:46.256Z,25.73
2023-01-21T02:53:28.134Z,25.20
2023-01-21T02:56:08.298Z,24.70
2023-01-21T02:58:48.132Z,25.70
2023-01-21T03:01:32.271Z,25.67
2023-01-21T03:04:41.095Z,25.50
2023-01-21T03:07:35.678Z,25.48
2023-01-21T03:10:28.414Z,25.13
2023-01-21T03:13:41.828Z,25.08
2023-01-21T03:16:35.104Z,26.13
2023-01-21T03:19:12.810Z,27.73
2023-01-21T03:21:46.494Z,26.88
2023-01-21T03:24:19.882Z,26.50
2023-01-21T03:26:53.900Z,26.13
2023-01-21T03:29:28.997Z,27.20
2023-01-21T03:32:06.362Z,27.27
2023-01-21T03:34:43.221Z,26.98
2023-01-21T03:37:27.715Z,28.90
2023-01-21T03:44:01.026Z,24.17
2023-01-21T03:46:49.227Z,24.77
2023-01-21T03:49:31.111Z,24.35
2023-01-21T03:52:05.407Z,26.60
2023-01-21T03:54:37.792Z,26.38
2023-01-21T03:58:29.630Z,26.80
2023-01-21T04:01:01.834Z,25.90
2023-01-21T04:03:33.817Z,27.20
2023-01-21T04:06:05.975Z,26.17
2023-01-21T04:08:38.011Z,26.65
2023-01-21T04:11:12.122Z,27.60
2023-01-21T04:13:44.279Z,25.02
2023-01-21T04:16:16.243Z,27.05
2023-01-21T04:18:48.354Z,28.45
2023-01-21T04:21:20.491Z,28.13
2023-01-21T04:23:54.385Z,28.42
2023-01-21T04:26:26.348Z,27.73
2023-01-21T04:28:59.837Z,27.35
2023-01-21T04:31:31.875Z,28.83
2023-01-21T04:34:04.039Z,28.70
2023-01-21T04:36:36.026Z,26.92
2023-01-21T04:39:08.075Z,27.00
2023-01-21T04:41:40.016Z,28.00
2023-01-21T04:44:12.064Z,26.65
2023-01-21T04:46:45.918Z,26.73
2023-01-21T04:49:19.476Z,26.63
2023-01-21T04:51:51.532Z,29.63
2023-01-21T04:54:23.557Z,27.30
2023-01-21T04:56:55.530Z,27.73
2023-01-21T04:59:27.651Z,27.52
2023-01-21T05:01:59.693Z,28.67
2023-01-21T05:04:33.000Z,29.85
2023-01-21T05:07:05.526Z,30.15
2023-01-21T05:13:30.477Z,29.95
2023-01-21T05:16:30.441Z,29.52
2023-01-21T05:19:02.416Z,30.00
2023-01-21T05:21:34.526Z,29.33
2023-01-21T05:24:06.868Z,29.20
2023-01-21T05:26:38.837Z,31.13
2023-01-21T05:29:11.228Z,29.02
2023-01-21T05:31:46.387Z,32.90
2023-01-21T05:34:18.375Z,33.78
2023-01-21T05:36:50.373Z,36.33
2023-01-21T05:39:22.399Z,35.83
2023-01-21T05:41:54.355Z,34.22
2023-01-21T05:44:26.367Z,34.13
2023-01-21T05:46:58.400Z,31.13
2023-01-21T05:50:01.229Z,33.13
2023-01-21T05:52:33.285Z,32.90
2023-01-21T05:55:06.185Z,31.10
2023-01-21T05:57:38.176Z,31.85
2023-01-21T06:00:11.110Z,29.75
2023-01-21T06:02:43.115Z,32.50
2023-01-21T06:05:15.276Z,31.77
2023-01-21T06:07:47.311Z,30.35
2023-01-21T06:10:20.649Z,29.35
2023-01-21T06:12:53.002Z,31.98
2023-01-21T06:15:25.934Z,29.40
2023-01-21T06:17:59.027Z,29.67
2023-01-21T06:20:31.552Z,30.23
2023-01-21T06:23:03.922Z,29.85
2023-01-21T06:25:35.892Z,29.05
2023-01-21T06:28:10.784Z,27.42
2023-01-21T06:30:42.773Z,29.40
2023-01-21T06:33:14.942Z,27.90
2023-01-21T06:35:47.586Z,29.15
2023-01-21T06:38:19.619Z,28.70
2023-01-21T06:40:51.713Z,26.85
2023-01-21T06:43:23.725Z,30.95
2023-01-21T06:45:55.984Z,27.77
2023-01-21T06:48:30.581Z,31.60
2023-01-21T06:51:02.990Z,30.50
2023-01-21T06:53:36.971Z,27.55
2023-01-21T06:56:08.992Z,30.25
2023-01-21T06:58:42.436Z,28.58
2023-01-21T07:01:14.477Z,30.00
2023-01-21T07:03:46.606Z,29.98
2023-01-21T07:06:18.618Z,29.17
2023-01-21T07:08:50.665Z,30.67
2023-01-21T07:11:22.772Z,28.10
2023-01-21T07:13:54.818Z,31.58
2023-01-21T07:16:27.250Z,27.77
2023-01-21T07:18:59.283Z,28.67
2023-01-21T07:21:31.494Z,28.30
2023-01-21T07:24:06.408Z,28.10
2023-01-21T07:26:38.380Z,27.23
2023-01-21T07:29:10.630Z,26.45
2023-01-21T07:31:42.681Z,26.65
2023-01-21T07:34:14.812Z,28.35
2023-01-21T07:36:46.770Z,27.92
2023-01-21T07:39:18.727Z,27.48
2023-01-21T07:41:50.786Z,26.38
2023-01-21T07:44:22.772Z,26.20
2023-01-21T07:46:55.015Z,26.70
2023-01-21T07:49:27.019Z,25.67
2023-01-21T07:51:59.144Z,24.83
2023-01-21T07:54:31.154Z,24.63
2023-01-21T07:57:03.232Z,24.52
2023-01-21T07:59:35.295Z,24.00
2023-01-21T08:02:07.325Z,24.60
2023-01-21T08:04:39.381Z,23.23
2023-01-21T08:07:13.271Z,26.63
2023-01-21T08:09:45.429Z,25.20
2023-01-21T08:12:17.507Z,25.02
2023-01-21T08:14:49.507Z,25.40
2023-01-21T08:17:21.581Z,24.67
2023-01-21T08:19:53.554Z,24.23
2023-01-21T08:22:26.111Z,27.85
2023-01-21T08:24:58.183Z,23.90
2023-01-21T08:27:30.412Z,24.40
2023-01-21T08:30:11.645Z,25.35
2023-01-21T08:32:44.205Z,24.20
2023-01-21T08:35:16.502Z,25.25
2023-01-21T08:37:48.718Z,25.23
2023-01-21T08:40:20.800Z,25.38
2023-01-21T08:42:59.480Z,24.67
2023-01-21T08:45:31.535Z,24.60
2023-01-21T08:48:04.268Z,26.58
2023-01-21T08:53:59.002Z,28.40
2023-01-21T08:56:31.262Z,27.27
2023-01-21T08:59:03.354Z,28.15
2023-01-21T09:01:37.962Z,27.05
2023-01-21T09:04:10.309Z,27.42
2023-01-21T09:06:42.289Z,25.20
2023-01-21T09:09:14.226Z,26.73
2023-01-21T09:11:46.343Z,27.08
2023-01-21T09:14:19.874Z,26.05
2023-01-21T09:16:52.044Z,27.20
2023-01-21T09:23:28.769Z,26.83
2023-01-21T09:26:07.339Z,28.15
2023-01-21T09:28:42.388Z,26.52
2023-01-21T09:31:31.166Z,27.40
2023-01-21T09:34:05.938Z,26.05
2023-01-21T09:36:59.812Z,25.80
2023-01-21T09:39:31.816Z,27.73
2023-01-21T09:42:03.963Z,28.25
2023-01-21T09:44:44.889Z,28.25
2023-01-21T09:47:36.754Z,25.10
2023-01-21T09:50:22.125Z,27.77
2023-01-21T09:53:01.738Z,26.15
2023-01-21T09:55:47.931Z,26.05
2023-01-21T09:58:37.931Z,26.20
2023-01-21T10:01:24.499Z,26.77
2023-01-21T10:04:03.147Z,27.33
2023-01-21T10:06:38.677Z,26.70
2023-01-21T10:09:43.897Z,26.40
2023-01-21T10:12:44.551Z,27.50
2023-01-21T10:15:41.888Z,24.67
2023-01-21T10:18:23.426Z,23.92
2023-01-21T10:21:03.820Z,26.45
2023-01-21T10:23:43.211Z,26.05
2023-01-21T10:26:15.834Z,25.30
2023-01-21T10:28:55.857Z,26.17
2023-01-21T10:31:40.088Z,27.77
2023-01-21T10:34:17.387Z,24.90
2023-01-21T10:37:12.589Z,25.08
2023-01-21T10:40:43.981Z,26.20
2023-01-21T10:43:37.765Z,25.55
2023-01-21T10:46:48.839Z,24.38
2023-01-21T10:49:29.759Z,25.90
2023-01-21T10:52:13.843Z,25.05
2023-01-21T10:54:56.737Z,24.95
2023-01-21T10:58:05.430Z,25.65
2023-01-21T11:00:44.053Z,26.75
2023-01-21T11:03:44.608Z,27.13
2023-01-21T11:06:19.556Z,26.42
2023-01-21T11:08:58.641Z,23.48
2023-01-21T11:11:35.539Z,25.10
2023-01-21T11:14:08.022Z,25.20
2023-01-21T11:16:45.586Z,25.70
2023-01-21T11:19:32.096Z,25.17
2023-01-21T11:22:17.643Z,25.27
2023-01-21T11:24:52.806Z,26.02
2023-01-21T11:27:40.284Z,23.90
2023-01-21T11:30:48.721Z,28.15
2023-01-21T11:33:27.884Z,27.65
2023-01-21T11:36:16.910Z,25.80
2023-01-21T11:39:03.928Z,24.50
2023-01-21T11:41:36.586Z,26.05
2023-01-21T11:44:20.697Z,27.25
2023-01-21T11:46:52.939Z,27.63
2023-01-21T11:49:28.931Z,27.90
2023-01-21T11:52:19.298Z,26.10
2023-01-21T11:54:52.678Z,26.30
2023-01-21T11:57:29.057Z,25.75
2023-01-21T12:00:19.361Z,22.60
2023-01-21T12:03:01.828Z,25.02
2023-01-21T12:05:43.162Z,21.08
2023-01-21T12:08:30.127Z,32.53
2023-01-21T12:11:05.054Z,27.25
2023-01-21T12:14:07.827Z,25.38
2023-01-21T12:17:22.025Z,23.10
2023-01-21T12:20:23.424Z,22.02
2023-01-21T12:23:15.493Z,23.42
2023-01-21T12:26:12.428Z,22.92
2023-01-21T12:29:21.753Z,21.27
2023-01-21T12:32:01.823Z,22.95
2023-01-21T12:35:02.750Z,23.42
2023-01-21T12:37:48.575Z,22.25
2023-01-21T12:40:33.247Z,21.77
2023-01-21T12:43:22.840Z,21.27
2023-01-21T12:46:15.266Z,22.05
2023-01-21T12:49:33.316Z,25.13
2023-01-21T12:52:59.801Z,22.88
2023-01-21T12:56:22.593Z,22.52
2023-01-21T12:59:14.365Z,23.38
2023-01-21T13:03:29.375Z,23.45
2023-01-21T13:06:10.877Z,21.83
2023-01-21T13:09:11.633Z,22.83
2023-01-21T13:11:52.613Z,24.67
2023-01-21T13:14:36.035Z,24.17
2023-01-21T13:17:31.086Z,21.67
2023-01-21T13:20:18.717Z,23.33
2023-01-21T13:23:35.243Z,23.70
2023-01-21T13:26:30.760Z,23.27
2023-01-21T13:29:47.526Z,20.92
2023-01-21T13:32:58.624Z,22.48
2023-01-21T13:36:14.561Z,23.42
2023-01-21T13:39:14.985Z,24.00
2023-01-21T13:42:17.686Z,22.77
2023-01-21T13:45:30.842Z,22.33
2023-01-21T13:48:33.635Z,23.10
2023-01-21T13:51:39.256Z,20.25
2023-01-21T13:54:45.749Z,19.35
2023-01-21T13:58:03.942Z,20.80
2023-01-21T14:01:32.231Z,20.17
2023-01-21T14:04:52.827Z,19.35
2023-01-21T14:07:45.078Z,20.08
2023-01-21T14:10:37.035Z,20.83
2023-01-21T14:13:29.350Z,19.50
2023-01-21T14:16:15.925Z,19.80
2023-01-21T14:19:12.395Z,18.75
2023-01-21T14:22:13.416Z,18.60
2023-01-21T14:25:16.704Z,20.00
2023-01-21T14:28:09.593Z,19.40
2023-01-21T14:30:48.466Z,20.52
2023-01-21T14:33:51.453Z,20.20
2023-01-21T14:36:43.391Z,17.83
2023-01-21T14:39:53.571Z,18.77
2023-01-21T14:42:47.158Z,18.67
2023-01-21T14:45:23.558Z,18.92
2023-01-21T14:47:57.905Z,22.50
2023-01-21T14:50:56.367Z,20.38
2023-01-21T14:53:28.447Z,19.95
2023-01-21T14:56:19.689Z,19.27
2023-01-21T14:59:23.846Z,19.33
2023-01-21T15:02:02.341Z,19.05
2023-01-21T15:04:42.069Z,18.73
2023-01-21T15:07:20.283Z,17.95
2023-01-21T15:10:02.477Z,17.88
2023-01-21T15:12:38.340Z,17.73
2023-01-21T15:16:13.924Z,16.17
2023-01-21T15:19:19.080Z,18.02
2023-01-21T15:22:00.279Z,17.23
2023-01-21T15:24:40.719Z,17.45
2023-01-21T15:27:27.016Z,16.52
2023-01-21T15:30:00.703Z,17.10
2023-01-21T15:32:41.064Z,19.90
2023-01-21T15:35:27.983Z,21.90
2023-01-21T15:38:09.723Z,21.48
2023-01-21T15:41:03.056Z,18.95
2023-01-21T15:43:54.984Z,20.30
2023-01-21T15:47:04.335Z,19.45
2023-01-21T15:49:56.045Z,19.98
2023-01-21T15:52:44.085Z,21.75
2023-01-21T15:55:25.996Z,20.95
2023-01-21T15:58:13.453Z,21.08
2023-01-21T16:01:41.508Z,22.42
2023-01-21T16:04:35.848Z,21.35
2023-01-21T16:07:32.232Z,21.85
2023-01-21T16:10:44.651Z,20.85
2023-01-21T16:13:47.605Z,21.33
2023-01-21T16:17:07.398Z,20.30
2023-01-21T16:19:45.508Z,22.33
2023-01-21T16:22:38.649Z,23.08
2023-01-21T16:25:15.629Z,21.27
2023-01-21T16:27:52.568Z,23.23
2023-01-21T16:30:32.309Z,23.40
2023-01-21T16:33:09.372Z,22.40
2023-01-21T16:35:50.450Z,22.08
2023-01-21T16:38:26.773Z,23.38
2023-01-21T16:41:08.029Z,23.52
2023-01-21T16:43:55.799Z,23.52
2023-01-21T16:46:36.352Z,22.73
2023-01-21T16:49:17.781Z,24.42
2023-01-21T16:52:01.046Z,26.30
2023-01-21T16:54:33.974Z,30.92
2023-01-21T16:57:19.514Z,23.02
2023-01-21T16:59:58.041Z,25.27
2023-01-21T17:02:33.386Z,23.60
2023-01-21T17:05:06.236Z,26.10
2023-01-21T17:07:49.019Z,25.48
2023-01-21T17:10:29.747Z,23.67
2023-01-21T17:13:08.035Z,24.55
2023-01-21T17:16:03.643Z,25.75
2023-01-21T17:18:39.764Z,24.80
2023-01-21T17:21:16.517Z,24.73
2023-01-21T17:23:55.632Z,25.77
2023-01-21T17:26:45.166Z,25.38
2023-01-21T17:29:18.859Z,24.30
2023-01-21T17:32:05.997Z,25.30
2023-01-21T17:34:40.259Z,27.40
2023-01-21T17:37:55.219Z,26.20
2023-01-21T17:40:45.992Z,26.88
2023-01-21T17:43:24.108Z,25.77
2023-01-21T17:45:57.490Z,28.60
2023-01-21T17:48:33.267Z,28.25
2023-01-21T17:51:06.464Z,26.33
2023-01-21T17:53:56.255Z,27.25
2023-01-21T17:57:00.612Z,27.25
2023-01-21T17:59:38.007Z,27.13
2023-01-21T18:02:17.007Z,26.60
2023-01-21T18:04:49.057Z,28.35
2023-01-21T18:07:32.240Z,26.95
2023-01-21T18:10:12.046Z,27.23
2023-01-21T18:12:44.055Z,26.48
2023-01-21T18:15:18.543Z,29.67
2023-01-21T18:17:56.209Z,25.23
2023-01-21T18:20:30.520Z,25.50
2023-01-21T18:23:02.807Z,25.38
2023-01-21T18:25:34.902Z,25.65
2023-01-21T18:28:22.085Z,26.17
2023-01-21T18:30:57.379Z,27.58
2023-01-21T18:33:31.003Z,25.00
2023-01-21T18:36:03.221Z,24.95
2023-01-21T18:38:35.981Z,26.75
2023-01-21T18:41:09.076Z,24.95
2023-01-21T18:43:42.056Z,25.80
2023-01-21T18:46:16.360Z,23.17
2023-01-21T18:48:48.495Z,24.10
2023-01-21T18:51:32.367Z,22.10
2023-01-21T18:54:04.704Z,24.27
2023-01-21T18:56:38.015Z,24.83
2023-01-21T18:59:19.451Z,30.85
2023-01-21T19:01:51.553Z,27.90
2023-01-21T19:04:23.649Z,25.35
2023-01-21T19:06:55.666Z,22.77
2023-01-21T19:09:28.020Z,23.73
2023-01-21T19:12:00.041Z,20.58
2023-01-21T19:14:31.983Z,21.45
2023-01-21T19:17:04.036Z,20.35
2023-01-21T19:19:36.022Z,20.98
2023-01-21T19:22:15.959Z,19.65
2023-01-21T19:24:48.287Z,18.73
2023-01-21T19:27:31.170Z,19.90
2023-01-21T19:30:03.470Z,19.73
2023-01-21T19:32:35.983Z,18.25
2023-01-21T19:38:23.251Z,17.40
2023-01-21T19:40:56.470Z,17.27
2023-01-21T19:43:28.833Z,16.65
2023-01-21T19:46:00.812Z,16.17
2023-01-21T19:48:32.998Z,15.75
2023-01-21T19:51:06.524Z,15.95
2023-01-21T19:53:38.513Z,15.13
2023-01-21T19:56:17.532Z,15.57
2023-01-21T19:58:49.610Z,14.23
2023-01-21T20:01:21.665Z,14.63
2023-01-21T20:06:46.592Z,14.30
2023-01-21T20:09:19.288Z,14.85
2023-01-21T20:11:51.310Z,14.73
2023-01-21T20:14:23.435Z,14.90
2023-01-21T20:16:56.581Z,14.00
2023-01-21T20:19:28.670Z,14.00
2023-01-21T20:22:02.332Z,13.25
2023-01-21T20:24:34.790Z,14.32
2023-01-21T20:27:15.565Z,14.13
2023-01-21T20:30:02.865Z,14.82
2023-01-21T20:32:39.923Z,13.35
2023-01-21T20:35:16.587Z,14.70
2023-01-21T20:37:51.686Z,13.07
2023-01-21T20:40:30.396Z,13.48
2023-01-21T20:43:02.633Z,13.40
2023-01-21T20:45:43.392Z,14.00
2023-01-21T20:48:44.605Z,17.02
2023-01-21T20:51:21.651Z,14.02
2023-01-21T20:53:53.996Z,13.45
2023-01-21T20:56:30.643Z,13.68
2023-01-21T20:59:02.870Z,13.50
2023-01-21T21:01:36.891Z,13.65
2023-01-21T21:04:10.717Z,13.85
2023-01-21T21:06:48.678Z,13.65
2023-01-21T21:09:22.165Z,13.32
2023-01-21T21:11:54.403Z,13.02
2023-01-21T21:14:28.200Z,12.68
2023-01-21T21:17:00.475Z,13.07
2023-01-21T21:19:32.597Z,12.60
2023-01-21T21:22:29.619Z,13.45
2023-01-21T21:25:01.675Z,24.23
2023-01-21T21:27:33.849Z,12.02
2023-01-21T21:30:08.867Z,16.88
2023-01-21T21:32:40.867Z,13.13
2023-01-21T21:35:32.240Z,12.27
2023-01-21T21:38:12.014Z,12.82
2023-01-21T21:40:47.692Z,12.80
2023-01-21T21:43:33.053Z,12.15
2023-01-21T21:46:27.732Z,12.32
2023-01-21T21:48:59.850Z,13.82
2023-01-21T21:51:31.973Z,12.93
2023-01-21T21:54:10.557Z,12.68
2023-01-21T21:56:43.298Z,13.77
2023-01-21T21:59:16.194Z,13.40
2023-01-21T22:01:48.186Z,12.90
2023-01-21T22:04:21.357Z,12.38
2023-01-21T22:06:53.439Z,13.32
2023-01-21T22:09:25.620Z,12.00
2023-01-21T22:11:57.681Z,12.25
2023-01-21T22:14:29.654Z,13.00
2023-01-21T22:17:01.732Z,13.40
2023-01-21T22:19:33.726Z,13.00
2023-01-21T22:22:06.119Z,12.32
2023-01-21T22:24:38.121Z,13.18
2023-01-21T22:27:13.114Z,13.73
2023-01-21T22:29:45.218Z,12.20
2023-01-21T22:32:17.218Z,12.98
2023-01-21T22:34:49.259Z,12.52
2023-01-21T22:37:21.308Z,13.40
2023-01-21T22:39:53.367Z,12.02
2023-01-21T22:42:25.519Z,12.77
2023-01-21T22:44:57.575Z,12.43
2023-01-21T22:47:32.117Z,12.60
2023-01-21T22:50:04.833Z,12.52
2023-01-21T22:52:36.842Z,12.00
2023-01-21T22:55:09.476Z,11.82
2023-01-21T22:57:41.490Z,12.52
2023-01-21T23:00:41.046Z,13.15
2023-01-21T23:03:13.069Z,12.18
2023-01-21T23:05:45.343Z,12.27
2023-01-21T23:08:18.738Z,12.30
2023-01-21T23:11:02.414Z,10.85
2023-01-21T23:13:35.377Z,10.85
2023-01-21T23:16:10.579Z,13.13
2023-01-21T23:18:42.700Z,11.50
2023-01-21T23:21:19.348Z,15.23
2023-01-21T23:23:51.412Z,14.55
2023-01-21T23:26:23.398Z,19.13
2023-01-21T23:28:57.248Z,12.20
2023-01-21T23:31:29.549Z,12.68
2023-01-21T23:34:03.412Z,11.57
2023-01-21T23:36:35.528Z,11.40
2023-01-21T23:39:07.844Z,12.02
2023-01-21T23:41:39.955Z,11.90
2023-01-21T23:44:12.077Z,13.23
2023-01-21T23:46:44.609Z,12.18
2023-01-21T23:49:19.689Z,11.23
2023-01-21T23:51:51.868Z,11.43
2023-01-21T23:54:23.911Z,11.55
2023-01-21T23:59:50.334Z,12.35
